createdAt,value
2023-09-20T00:00:45.166Z,24.14
2023-09-20T00:03:14.761Z,24.12
2023-09-20T00:05:45.254Z,24.10
2023-09-20T00:08:13.316Z,24.09
2023-09-20T00:10:41.391Z,24.07
2023-09-20T00:13:11.410Z,24.07
2023-09-20T00:15:41.914Z,24.08
2023-09-20T00:18:10.130Z,24.11
2023-09-20T00:20:41.161Z,24.10
2023-09-20T00:23:10.453Z,24.10
2023-09-20T00:25:38.984Z,24.07
2023-09-20T00:28:08.095Z,24.03
2023-09-20T00:30:36.208Z,24.01
2023-09-20T00:33:04.943Z,23.97
2023-09-20T00:35:33.143Z,23.96
2023-09-20T00:38:02.685Z,23.96
2023-09-20T00:40:31.589Z,23.93
2023-09-20T00:42:59.921Z,23.91
2023-09-20T00:45:28.051Z,23.88
2023-09-20T00:47:57.915Z,23.84
2023-09-20T00:50:28.226Z,23.80
2023-09-20T00:52:56.998Z,23.77
2023-09-20T00:55:27.470Z,23.75
2023-09-20T00:57:56.075Z,23.73
2023-09-20T01:00:27.534Z,23.71
2023-09-20T01:02:56.132Z,23.72
2023-09-20T01:05:27.079Z,23.70
2023-09-20T01:10:27.240Z,23.68
2023-09-20T01:12:56.034Z,23.68
2023-09-20T01:15:24.263Z,23.67
2023-09-20T01:17:54.673Z,23.67
2023-09-20T01:20:25.369Z,23.66
2023-09-20T01:22:55.908Z,23.65
2023-09-20T01:25:25.261Z,23.63
2023-09-20T01:27:56.260Z,23.60
2023-09-20T01:30:26.312Z,23.59
2023-09-20T01:32:55.770Z,23.58
2023-09-20T01:35:24.931Z,23.57
2023-09-20T01:37:54.731Z,23.55
2023-09-20T01:40:24.395Z,23.53
2023-09-20T01:42:53.333Z,23.52
2023-09-20T01:45:22.488Z,23.49
2023-09-20T01:47:52.071Z,23.47
2023-09-20T01:50:21.579Z,23.45
2023-09-20T01:52:50.505Z,23.44
2023-09-20T01:55:22.134Z,23.43
2023-09-20T01:57:50.273Z,23.42
2023-09-20T02:00:23.801Z,23.41
2023-09-20T02:02:52.620Z,23.42
2023-09-20T02:05:20.880Z,23.40
2023-09-20T02:07:49.048Z,23.37
2023-09-20T02:10:18.254Z,23.37
2023-09-20T02:12:48.135Z,23.35
2023-09-20T02:15:16.422Z,23.33
2023-09-20T02:17:44.583Z,23.31
2023-09-20T02:20:13.981Z,23.31
2023-09-20T02:22:43.195Z,23.31
2023-09-20T02:25:12.824Z,23.30
2023-09-20T02:27:42.040Z,23.28
2023-09-20T02:30:14.018Z,23.27
2023-09-20T02:32:42.130Z,23.27
2023-09-20T02:35:10.840Z,23.25
2023-09-20T02:37:41.730Z,23.22
2023-09-20T02:40:14.336Z,23.19
2023-09-20T02:42:43.436Z,23.19
2023-09-20T02:45:13.948Z,23.20
2023-09-20T02:47:42.356Z,23.19
2023-09-20T02:50:13.298Z,23.18
2023-09-20T02:52:41.823Z,23.16
2023-09-20T02:55:13.162Z,23.15
2023-09-20T02:57:41.436Z,23.14
2023-09-20T03:00:17.101Z,23.11
2023-09-20T03:02:46.982Z,23.11
2023-09-20T03:05:16.771Z,23.10
2023-09-20T03:07:45.609Z,23.08
2023-09-20T03:10:14.936Z,23.04
2023-09-20T03:12:45.260Z,23.02
2023-09-20T03:15:18.229Z,23.00
2023-09-20T03:17:48.669Z,23.02
2023-09-20T03:20:23.967Z,22.99
2023-09-20T03:22:52.877Z,22.97
2023-09-20T03:25:21.307Z,22.93
2023-09-20T03:27:49.742Z,22.89
2023-09-20T03:30:18.906Z,22.88
2023-09-20T03:32:48.487Z,22.84
2023-09-20T03:35:16.787Z,22.84
2023-09-20T03:37:45.135Z,22.85
2023-09-20T03:40:18.025Z,22.87
2023-09-20T03:42:46.816Z,22.86
2023-09-20T03:45:15.408Z,22.85
2023-09-20T03:47:43.629Z,22.83
2023-09-20T03:50:13.597Z,22.83
2023-09-20T03:52:41.786Z,22.83
2023-09-20T03:55:09.818Z,22.82
2023-09-20T03:57:38.811Z,22.82
2023-09-20T04:00:11.420Z,22.80
2023-09-20T04:02:39.666Z,22.79
2023-09-20T04:05:19.271Z,22.77
2023-09-20T04:07:57.644Z,22.80
2023-09-20T04:10:27.833Z,22.80
2023-09-20T04:12:55.880Z,22.80
2023-09-20T04:15:25.004Z,22.80
2023-09-20T04:17:53.269Z,22.81
2023-09-20T04:20:22.953Z,22.81
2023-09-20T04:22:51.583Z,22.81
2023-09-20T04:25:21.524Z,22.81
2023-09-20T04:27:49.591Z,22.81
2023-09-20T04:30:19.409Z,22.82
2023-09-20T04:32:47.663Z,22.81
2023-09-20T04:35:18.481Z,22.78
2023-09-20T04:37:47.225Z,22.80
2023-09-20T04:40:15.269Z,22.82
2023-09-20T04:42:44.880Z,22.82
2023-09-20T04:45:14.052Z,22.82
2023-09-20T04:47:42.327Z,22.81
2023-09-20T04:50:13.096Z,22.81
2023-09-20T04:52:42.568Z,22.82
2023-09-20T04:55:12.235Z,22.83
2023-09-20T04:57:40.351Z,22.85
2023-09-20T05:00:10.673Z,22.85
2023-09-20T05:02:38.922Z,22.85
2023-09-20T05:05:07.600Z,22.85
2023-09-20T05:07:36.045Z,22.85
2023-09-20T05:10:04.140Z,22.85
2023-09-20T05:12:32.110Z,22.87
2023-09-20T05:15:00.090Z,22.87
2023-09-20T05:17:30.028Z,22.87
2023-09-20T05:19:59.483Z,22.88
2023-09-20T05:22:27.664Z,22.89
2023-09-20T05:24:56.130Z,22.89
2023-09-20T05:27:24.504Z,22.90
2023-09-20T05:29:54.320Z,22.93
2023-09-20T05:32:23.073Z,22.95
2023-09-20T05:34:52.642Z,22.96
2023-09-20T05:37:20.744Z,22.98
2023-09-20T05:39:49.530Z,22.99
2023-09-20T05:42:17.523Z,22.99
2023-09-20T05:44:45.673Z,23.01
2023-09-20T05:47:13.673Z,23.06
2023-09-20T05:49:41.659Z,23.08
2023-09-20T05:52:11.112Z,23.10
2023-09-20T05:54:39.076Z,23.10
2023-09-20T05:57:07.433Z,23.12
2023-09-20T05:59:35.633Z,23.14
2023-09-20T06:02:04.104Z,23.17
2023-09-20T06:04:32.215Z,23.17
2023-09-20T06:07:04.011Z,23.19
2023-09-20T06:09:33.766Z,23.19
2023-09-20T06:12:05.234Z,23.21
2023-09-20T06:14:33.447Z,23.24
2023-09-20T06:17:01.850Z,23.27
2023-09-20T06:19:31.994Z,23.36
2023-09-20T06:22:00.488Z,23.43
2023-09-20T06:24:28.481Z,23.45
2023-09-20T06:26:59.971Z,23.51
2023-09-20T06:29:28.325Z,23.53
2023-09-20T06:31:56.507Z,23.57
2023-09-20T06:34:25.905Z,23.60
2023-09-20T06:36:53.969Z,23.64
2023-09-20T06:39:21.998Z,23.66
2023-09-20T06:41:50.498Z,23.68
2023-09-20T06:44:19.999Z,23.74
2023-09-20T06:46:48.121Z,23.79
2023-09-20T06:49:16.259Z,23.85
2023-09-20T06:51:44.488Z,23.88
2023-09-20T06:54:12.606Z,23.95
2023-09-20T06:56:40.687Z,24.00
2023-09-20T06:59:08.874Z,24.05
2023-09-20T07:01:38.379Z,24.09
2023-09-20T07:04:08.137Z,24.15
2023-09-20T07:06:36.281Z,24.24
2023-09-20T07:09:06.401Z,24.25
2023-09-20T07:11:35.376Z,24.30
2023-09-20T07:14:07.076Z,24.32
2023-09-20T07:16:37.580Z,24.34
2023-09-20T07:19:07.343Z,24.34
2023-09-20T07:21:38.395Z,24.36
2023-09-20T07:24:08.020Z,24.40
2023-09-20T07:26:39.573Z,24.45
2023-09-20T07:29:07.893Z,24.46
2023-09-20T07:31:38.198Z,24.48
2023-09-20T07:34:08.215Z,24.53
2023-09-20T07:36:38.764Z,24.59
2023-09-20T07:39:09.784Z,24.66
2023-09-20T07:41:38.096Z,24.69
2023-09-20T07:44:07.283Z,24.70
2023-09-20T07:46:39.886Z,24.77
2023-09-20T07:49:11.440Z,24.80
2023-09-20T07:51:40.380Z,24.82
2023-09-20T07:54:11.101Z,24.85
2023-09-20T07:56:41.284Z,24.89
2023-09-20T07:59:14.103Z,24.86
2023-09-20T08:01:43.289Z,24.89
2023-09-20T08:04:12.883Z,24.98
2023-09-20T08:06:41.711Z,25.04
2023-09-20T08:09:09.811Z,25.07
2023-09-20T08:11:38.547Z,25.10
2023-09-20T08:14:06.851Z,25.11
2023-09-20T08:16:47.340Z,25.12
2023-09-20T08:19:25.263Z,25.13
2023-09-20T08:21:54.441Z,25.16
2023-09-20T08:24:39.783Z,25.17
2023-09-20T08:27:25.019Z,25.17
2023-09-20T08:30:10.522Z,25.26
2023-09-20T08:32:56.009Z,25.32
2023-09-20T08:35:42.807Z,25.39
2023-09-20T08:38:28.038Z,25.44
2023-09-20T08:41:13.733Z,25.50
2023-09-20T08:43:59.041Z,25.57
2023-09-20T08:46:44.559Z,25.61
2023-09-20T08:49:29.894Z,25.67
2023-09-20T08:52:23.157Z,25.72
2023-09-20T08:55:08.715Z,25.59
2023-09-20T08:57:54.602Z,25.62
2023-09-20T09:00:26.356Z,25.63
2023-09-20T09:02:55.998Z,25.63
2023-09-20T09:05:26.320Z,25.63
2023-09-20T09:07:56.020Z,25.64
2023-09-20T09:10:24.038Z,25.65
2023-09-20T09:12:52.190Z,25.64
2023-09-20T09:15:20.351Z,25.63
2023-09-20T09:17:48.834Z,25.64
2023-09-20T09:20:17.663Z,25.66
2023-09-20T09:22:46.286Z,25.65
2023-09-20T09:25:17.803Z,25.65
2023-09-20T09:27:46.004Z,25.67
2023-09-20T09:30:14.936Z,25.70
2023-09-20T09:32:45.348Z,25.72
2023-09-20T09:35:19.121Z,25.72
2023-09-20T09:37:50.014Z,25.69
2023-09-20T09:40:19.757Z,25.70
2023-09-20T09:42:49.358Z,25.73
2023-09-20T09:45:22.203Z,25.75
2023-09-20T09:47:50.355Z,25.73
2023-09-20T09:50:18.408Z,25.77
2023-09-20T09:52:46.413Z,25.80
2023-09-20T09:55:14.479Z,25.78
2023-09-20T09:57:44.721Z,25.65
2023-09-20T10:00:13.868Z,25.72
2023-09-20T10:02:43.598Z,25.77
2023-09-20T10:05:13.338Z,25.79
2023-09-20T10:07:41.737Z,25.81
2023-09-20T10:10:14.064Z,25.84
2023-09-20T10:12:45.684Z,25.85
2023-09-20T10:15:16.077Z,25.85
2023-09-20T10:17:47.947Z,25.86
2023-09-20T10:20:18.228Z,25.91
2023-09-20T10:22:47.350Z,25.93
2023-09-20T10:25:30.557Z,25.93
2023-09-20T10:28:00.037Z,25.92
2023-09-20T10:30:29.885Z,25.95
2023-09-20T10:32:59.674Z,25.94
2023-09-20T10:35:31.431Z,25.94
2023-09-20T10:38:22.330Z,25.95
2023-09-20T10:41:06.641Z,25.97
2023-09-20T10:43:52.946Z,26.03
2023-09-20T10:46:23.716Z,26.03
2023-09-20T10:48:52.735Z,26.07
2023-09-20T10:51:42.961Z,26.09
2023-09-20T10:54:20.934Z,26.08
2023-09-20T10:57:08.954Z,26.12
2023-09-20T10:59:39.131Z,26.15
2023-09-20T11:02:10.200Z,26.17
2023-09-20T11:04:39.705Z,26.17
2023-09-20T11:07:07.888Z,26.19
2023-09-20T11:09:40.386Z,26.22
2023-09-20T11:12:09.068Z,26.21
2023-09-20T11:14:41.655Z,26.22
2023-09-20T11:17:10.607Z,26.25
2023-09-20T11:19:39.861Z,26.27
2023-09-20T11:22:07.991Z,26.30
2023-09-20T11:24:38.613Z,26.31
2023-09-20T11:27:06.624Z,26.31
2023-09-20T11:29:39.634Z,26.32
2023-09-20T11:32:10.623Z,26.31
2023-09-20T11:34:46.243Z,26.33
2023-09-20T11:37:16.848Z,26.33
2023-09-20T11:39:46.407Z,26.37
2023-09-20T11:42:26.823Z,26.41
2023-09-20T11:45:16.668Z,26.42
2023-09-20T11:47:45.626Z,26.40
2023-09-20T11:50:15.740Z,26.39
2023-09-20T11:52:47.584Z,26.41
2023-09-20T11:55:16.492Z,26.44
2023-09-20T11:57:46.678Z,26.45
2023-09-20T12:00:19.078Z,26.43
2023-09-20T12:02:47.465Z,26.42
2023-09-20T12:05:16.876Z,26.43
2023-09-20T12:07:54.523Z,26.47
2023-09-20T12:10:22.936Z,26.48
2023-09-20T12:12:51.627Z,26.50
2023-09-20T12:15:24.582Z,26.51
2023-09-20T12:17:54.762Z,26.53
2023-09-20T12:20:23.467Z,26.56
2023-09-20T12:22:51.680Z,26.58
2023-09-20T12:25:20.992Z,26.59
2023-09-20T12:27:49.132Z,26.58
2023-09-20T12:30:18.903Z,26.56
2023-09-20T12:32:48.615Z,26.55
2023-09-20T12:35:16.942Z,26.59
2023-09-20T12:37:45.220Z,26.61
2023-09-20T12:40:13.354Z,26.63
2023-09-20T12:42:41.499Z,26.64
2023-09-20T12:45:10.318Z,26.65
2023-09-20T12:47:41.837Z,26.63
2023-09-20T12:50:13.994Z,26.62
2023-09-20T12:52:44.138Z,26.65
2023-09-20T12:55:13.659Z,26.68
2023-09-20T12:57:42.637Z,26.64
2023-09-20T13:00:20.718Z,26.67
2023-09-20T13:02:56.818Z,26.70
2023-09-20T13:05:26.450Z,26.72
2023-09-20T13:07:54.807Z,26.73
2023-09-20T13:10:23.373Z,26.71
2023-09-20T13:12:51.451Z,26.69
2023-09-20T13:15:20.077Z,26.68
2023-09-20T13:17:49.553Z,26.70
2023-09-20T13:20:19.894Z,26.71
2023-09-20T13:22:53.692Z,26.71
2023-09-20T13:25:22.260Z,26.71
2023-09-20T13:27:50.690Z,26.71
2023-09-20T13:30:18.983Z,26.72
2023-09-20T13:32:48.723Z,26.74
2023-09-20T13:35:18.130Z,26.74
2023-09-20T13:37:46.758Z,26.76
2023-09-20T13:40:17.131Z,26.78
2023-09-20T13:42:45.789Z,26.77
2023-09-20T13:45:14.453Z,26.77
2023-09-20T13:47:43.267Z,26.77
2023-09-20T13:50:12.046Z,26.75
2023-09-20T13:52:41.398Z,26.75
2023-09-20T13:55:12.455Z,26.76
2023-09-20T13:57:41.945Z,26.76
2023-09-20T14:00:14.069Z,26.74
2023-09-20T14:02:42.416Z,26.73
2023-09-20T14:05:15.738Z,26.73
2023-09-20T14:07:45.634Z,26.71
2023-09-20T14:10:13.929Z,26.69
2023-09-20T14:12:43.571Z,26.69
2023-09-20T14:15:13.694Z,26.68
2023-09-20T14:17:44.233Z,26.67
2023-09-20T14:20:17.054Z,26.66
2023-09-20T14:22:45.195Z,26.67
2023-09-20T14:25:13.417Z,26.65
2023-09-20T14:27:43.019Z,26.65
2023-09-20T14:30:13.402Z,26.65
2023-09-20T14:32:41.559Z,26.65
2023-09-20T14:35:12.279Z,26.66
2023-09-20T14:37:40.318Z,26.64
2023-09-20T14:40:14.067Z,26.65
2023-09-20T14:42:45.316Z,26.67
2023-09-20T14:45:15.885Z,26.66
2023-09-20T14:47:44.838Z,26.66
2023-09-20T14:50:14.454Z,26.65
2023-09-20T14:52:42.678Z,26.64
2023-09-20T14:55:13.431Z,26.62
2023-09-20T14:57:43.212Z,26.63
2023-09-20T15:00:17.867Z,26.64
2023-09-20T15:02:46.231Z,26.63
2023-09-20T15:05:15.851Z,26.62
2023-09-20T15:07:44.374Z,26.63
2023-09-20T15:10:12.568Z,26.62
2023-09-20T15:12:42.471Z,26.60
2023-09-20T15:15:16.005Z,26.61
2023-09-20T15:17:44.666Z,26.60
2023-09-20T15:20:13.831Z,26.59
2023-09-20T15:22:41.874Z,26.57
2023-09-20T15:25:11.669Z,26.56
2023-09-20T15:27:41.850Z,26.55
2023-09-20T15:30:15.813Z,26.51
2023-09-20T15:32:45.511Z,26.50
2023-09-20T15:35:13.814Z,26.49
2023-09-20T15:37:45.284Z,26.47
2023-09-20T15:40:17.049Z,26.48
2023-09-20T15:42:46.803Z,26.46
2023-09-20T15:45:18.612Z,26.45
2023-09-20T15:47:47.417Z,26.43
2023-09-20T15:50:15.689Z,26.42
2023-09-20T15:52:43.804Z,26.40
2023-09-20T15:55:16.826Z,26.39
2023-09-20T15:57:45.727Z,26.37
2023-09-20T16:00:16.126Z,26.36
2023-09-20T16:02:47.067Z,26.34
2023-09-20T16:05:16.652Z,26.33
2023-09-20T16:07:45.056Z,26.33
2023-09-20T16:10:16.317Z,26.32
2023-09-20T16:12:46.135Z,26.33
2023-09-20T16:15:14.985Z,26.31
2023-09-20T16:17:43.305Z,26.30
2023-09-20T16:20:16.109Z,26.30
2023-09-20T16:22:44.914Z,26.28
2023-09-20T16:25:13.606Z,26.29
2023-09-20T16:27:41.911Z,26.28
2023-09-20T16:30:11.414Z,26.29
2023-09-20T16:32:42.238Z,26.27
2023-09-20T16:35:15.525Z,26.28
2023-09-20T16:37:44.290Z,26.28
2023-09-20T16:40:13.414Z,26.25
2023-09-20T16:42:42.295Z,26.24
2023-09-20T16:45:13.492Z,26.23
2023-09-20T16:47:41.771Z,26.22
2023-09-20T16:50:10.456Z,26.22
2023-09-20T16:52:39.890Z,26.21
2023-09-20T16:55:10.793Z,26.21
2023-09-20T16:57:39.026Z,26.21
2023-09-20T17:00:12.769Z,26.20
2023-09-20T17:02:41.423Z,26.19
2023-09-20T17:05:16.404Z,26.18
2023-09-20T17:07:46.345Z,26.17
2023-09-20T17:10:17.056Z,26.14
2023-09-20T17:12:45.987Z,26.12
2023-09-20T17:15:14.050Z,26.10
2023-09-20T17:17:43.077Z,26.10
2023-09-20T17:20:12.970Z,26.10
2023-09-20T17:22:41.642Z,26.10
2023-09-20T17:25:14.333Z,26.08
2023-09-20T17:27:43.525Z,26.07
2023-09-20T17:30:13.774Z,26.05
2023-09-20T17:32:42.076Z,26.07
2023-09-20T17:35:10.825Z,26.06
2023-09-20T17:37:39.096Z,26.04
2023-09-20T17:40:11.675Z,26.04
2023-09-20T17:42:41.410Z,26.03
2023-09-20T17:45:11.722Z,26.01
2023-09-20T17:47:41.133Z,25.97
2023-09-20T17:50:10.586Z,25.96
2023-09-20T17:52:53.875Z,25.96
2023-09-20T17:55:21.929Z,25.94
2023-09-20T17:57:52.469Z,25.91
2023-09-20T18:00:25.959Z,25.91
2023-09-20T18:02:56.579Z,25.90
2023-09-20T18:05:25.066Z,25.91
2023-09-20T18:07:53.134Z,25.92
2023-09-20T18:10:25.032Z,25.92
2023-09-20T18:12:54.881Z,25.92
2023-09-20T18:15:23.055Z,25.90
2023-09-20T18:17:51.495Z,25.87
2023-09-20T18:20:21.006Z,25.83
2023-09-20T18:22:49.135Z,25.81
2023-09-20T18:25:17.267Z,25.79
2023-09-20T18:27:45.491Z,25.77
2023-09-20T18:30:15.924Z,25.78
2023-09-20T18:32:44.282Z,25.78
2023-09-20T18:35:12.850Z,25.78
2023-09-20T18:37:42.524Z,25.76
2023-09-20T18:40:11.208Z,25.76
2023-09-20T18:42:39.337Z,25.77
2023-09-20T18:45:08.524Z,25.77
2023-09-20T18:47:44.037Z,25.77
2023-09-20T18:50:14.856Z,25.76
2023-09-20T18:52:44.526Z,25.78
2023-09-20T18:55:16.970Z,25.77
2023-09-20T18:57:51.510Z,25.78
2023-09-20T19:00:20.196Z,25.77
2023-09-20T19:02:50.568Z,25.77
2023-09-20T19:05:20.100Z,25.75
2023-09-20T19:07:49.377Z,25.74
2023-09-20T19:10:18.350Z,25.73
2023-09-20T19:12:46.526Z,25.74
2023-09-20T19:15:16.710Z,25.76
2023-09-20T19:17:45.450Z,25.77
2023-09-20T19:20:19.200Z,25.76
2023-09-20T19:22:47.459Z,25.76
2023-09-20T19:25:18.061Z,25.75
2023-09-20T19:27:48.422Z,25.74
2023-09-20T19:30:17.540Z,25.75
2023-09-20T19:32:46.544Z,25.76
2023-09-20T19:35:16.023Z,25.75
2023-09-20T19:37:44.198Z,25.75
2023-09-20T19:40:17.909Z,25.75
2023-09-20T19:42:46.953Z,25.76
2023-09-20T19:45:16.481Z,25.74
2023-09-20T19:47:45.421Z,25.74
2023-09-20T19:50:16.658Z,25.73
2023-09-20T19:52:49.040Z,25.74
2023-09-20T19:55:19.375Z,25.75
2023-09-20T19:57:47.474Z,25.74
2023-09-20T20:00:24.920Z,25.75
2023-09-20T20:02:53.971Z,25.74
2023-09-20T20:05:25.185Z,25.73
2023-09-20T20:07:54.178Z,25.72
2023-09-20T20:10:23.275Z,25.73
2023-09-20T20:12:51.375Z,25.71
2023-09-20T20:15:21.140Z,25.68
2023-09-20T20:17:52.647Z,25.71
2023-09-20T20:20:28.022Z,25.71
2023-09-20T20:22:57.916Z,25.71
2023-09-20T20:25:28.633Z,25.69
2023-09-20T20:27:58.386Z,25.67
2023-09-20T20:30:29.616Z,25.66
2023-09-20T20:32:58.439Z,25.65
2023-09-20T20:35:27.581Z,25.64
2023-09-20T20:37:57.392Z,25.64
2023-09-20T20:40:26.733Z,25.63
2023-09-20T20:42:54.944Z,25.62
2023-09-20T20:45:23.308Z,25.62
2023-09-20T20:47:52.216Z,25.61
2023-09-20T20:50:26.421Z,25.58
2023-09-20T20:52:54.801Z,25.59
2023-09-20T20:55:24.776Z,25.59
2023-09-20T20:57:53.196Z,25.56
2023-09-20T21:00:25.632Z,25.57
2023-09-20T21:02:54.534Z,25.56
2023-09-20T21:05:25.158Z,25.55
2023-09-20T21:07:53.549Z,25.55
2023-09-20T21:10:23.042Z,25.54
2023-09-20T21:12:51.328Z,25.52
2023-09-20T21:15:22.325Z,25.53
2023-09-20T21:17:51.818Z,25.52
2023-09-20T21:20:22.886Z,25.49
2023-09-20T21:22:53.649Z,25.51
2023-09-20T21:25:27.466Z,25.49
2023-09-20T21:27:55.846Z,25.44
2023-09-20T21:30:25.072Z,25.42
2023-09-20T21:32:53.518Z,25.41
2023-09-20T21:35:23.503Z,25.39
2023-09-20T21:37:54.682Z,25.37
2023-09-20T21:40:23.027Z,25.34
2023-09-20T21:42:52.965Z,25.33
2023-09-20T21:45:21.384Z,25.29
2023-09-20T21:47:50.853Z,25.29
2023-09-20T21:50:20.145Z,25.26
2023-09-20T21:52:50.973Z,25.26
2023-09-20T21:55:19.332Z,25.28
2023-09-20T21:57:47.442Z,25.30
2023-09-20T22:00:30.814Z,25.28
2023-09-20T22:03:00.897Z,25.24
2023-09-20T22:05:29.353Z,25.23
2023-09-20T22:07:59.197Z,25.23
2023-09-20T22:10:34.210Z,25.25
2023-09-20T22:13:04.615Z,25.27
2023-09-20T22:15:35.228Z,25.27
2023-09-20T22:18:11.565Z,25.28
2023-09-20T22:20:41.869Z,25.27
2023-09-20T22:23:10.984Z,25.28
2023-09-20T22:25:39.521Z,25.27
2023-09-20T22:28:07.707Z,25.25
2023-09-20T22:30:39.707Z,25.25
2023-09-20T22:33:08.838Z,25.21
2023-09-20T22:35:37.086Z,25.21
2023-09-20T22:38:05.477Z,25.21
2023-09-20T22:40:33.506Z,25.19
2023-09-20T22:43:01.956Z,25.19
2023-09-20T22:45:33.254Z,25.18
2023-09-20T22:48:06.684Z,25.18
2023-09-20T22:50:40.518Z,25.15
2023-09-20T22:53:10.587Z,25.15
2023-09-20T22:55:41.293Z,25.16
2023-09-20T22:58:13.988Z,25.15
2023-09-20T23:00:45.210Z,25.16
2023-09-20T23:03:15.766Z,25.16
2023-09-20T23:05:44.285Z,25.12
2023-09-20T23:08:13.077Z,25.12
2023-09-20T23:10:46.407Z,25.14
2023-09-20T23:13:20.542Z,25.14
2023-09-20T23:15:53.083Z,25.14
2023-09-20T23:18:23.839Z,25.11
2023-09-20T23:20:53.346Z,25.11
2023-09-20T23:23:23.683Z,25.10
2023-09-20T23:25:52.005Z,25.08
2023-09-20T23:28:20.015Z,25.07
2023-09-20T23:30:54.144Z,25.04
2023-09-20T23:33:28.660Z,25.05
2023-09-20T23:35:58.687Z,25.07
2023-09-20T23:38:29.769Z,25.07
2023-09-20T23:41:06.401Z,25.08
2023-09-20T23:43:35.212Z,25.08
2023-09-20T23:46:09.113Z,25.08
2023-09-20T23:48:39.348Z,25.06
2023-09-20T23:51:08.974Z,25.07
2023-09-20T23:53:38.046Z,25.08
2023-09-20T23:56:08.018Z,25.08
2023-09-20T23:58:36.273Z,25.09
